sensor_id;sensor_type;location;lat;lon;timestamp;temperature;humidity
9209;DHT22;4639;48.862;9.188;2023-03-01T00:00:39;1.10;99.90
9209;DHT22;4639;48.862;9.188;2023-03-01T00:03:05;1.10;99.90
9209;DHT22;4639;48.862;9.188;2023-03-01T00:05:31;1.00;99.90
9209;DHT22;4639;48.862;9.188;2023-03-01T00:07:57;1.10;99.90
9209;DHT22;4639;48.862;9.188;2023-03-01T00:10:23;1.10;99.90
9209;DHT22;4639;48.862;9.188;2023-03-01T00:12:48;1.00;99.90
9209;DHT22;4639;48.862;9.188;2023-03-01T00:15:14;1.00;99.90
9209;DHT22;4639;48.862;9.188;2023-03-01T00:17:39;1.00;99.90
9209;DHT22;4639;48.862;9.188;2023-03-01T00:20:06;1.00;99.90
9209;DHT22;4639;48.862;9.188;2023-03-01T00:22:36;1.00;99.90
9209;DHT22;4639;48.862;9.188;2023-03-01T00:25:03;1.00;99.90
9209;DHT22;4639;48.862;9.188;2023-03-01T00:27:28;0.90;99.90
9209;DHT22;4639;48.862;9.188;2023-03-01T00:29:54;0.90;99.90
9209;DHT22;4639;48.862;9.188;2023-03-01T00:32:19;0.80;99.90
9209;DHT22;4639;48.862;9.188;2023-03-01T00:34:45;0.80;99.90
9209;DHT22;4639;48.862;9.188;2023-03-01T00:37:22;0.70;99.90
9209;DHT22;4639;48.862;9.188;2023-03-01T00:39:48;0.80;99.90
9209;DHT22;4639;48.862;9.188;2023-03-01T00:42:15;0.70;99.90
9209;DHT22;4639;48.862;9.188;2023-03-01T00:44:40;0.60;99.90
9209;DHT22;4639;48.862;9.188;2023-03-01T00:47:06;0.60;99.90
9209;DHT22;4639;48.862;9.188;2023-03-01T00:49:31;0.50;99.90
9209;DHT22;4639;48.862;9.188;2023-03-01T00:51:57;0.50;99.90
9209;DHT22;4639;48.862;9.188;2023-03-01T00:54:22;0.50;99.90
9209;DHT22;4639;48.862;9.188;2023-03-01T00:56:48;0.50;99.90
9209;DHT22;4639;48.862;9.188;2023-03-01T00:59:14;0.50;99.90
9209;DHT22;4639;48.862;9.188;2023-03-01T01:01:39;0.50;99.90
9209;DHT22;4639;48.862;9.188;2023-03-01T01:04:08;0.50;99.90
9209;DHT22;4639;48.862;9.188;2023-03-01T01:06:44;0.50;99.90
9209;DHT22;4639;48.862;9.188;2023-03-01T01:09:13;0.50;99.90
9209;DHT22;4639;48.862;9.188;2023-03-01T01:11:43;0.50;99.90
9209;DHT22;4639;48.862;9.188;2023-03-01T01:14:09;0.50;99.90
9209;DHT22;4639;48.862;9.188;2023-03-01T01:16:34;0.50;99.90
9209;DHT22;4639;48.862;9.188;2023-03-01T01:19:00;0.40;99.90
9209;DHT22;4639;48.862;9.188;2023-03-01T01:21:26;0.40;99.90
9209;DHT22;4639;48.862;9.188;2023-03-01T01:23:53;0.40;99.90
9209;DHT22;4639;48.862;9.188;2023-03-01T01:26:30;0.40;99.90
9209;DHT22;4639;48.862;9.188;2023-03-01T01:28:57;0.40;99.90
9209;DHT22;4639;48.862;9.188;2023-03-01T01:31:23;0.30;99.90
9209;DHT22;4639;48.862;9.188;2023-03-01T01:33:50;0.30;99.90
9209;DHT22;4639;48.862;9.188;2023-03-01T01:36:16;0.30;99.90
9209;DHT22;4639;48.862;9.188;2023-03-01T01:38:42;0.30;99.90
9209;DHT22;4639;48.862;9.188;2023-03-01T01:41:09;0.30;99.90
9209;DHT22;4639;48.862;9.188;2023-03-01T01:43:46;0.30;99.90
9209;DHT22;4639;48.862;9.188;2023-03-01T01:46:32;0.20;99.90
9209;DHT22;4639;48.862;9.188;2023-03-01T01:49:01;0.10;99.90
9209;DHT22;4639;48.862;9.188;2023-03-01T01:51:32;0.10;99.90
9209;DHT22;4639;48.862;9.188;2023-03-01T01:54:10;0.10;99.90
9209;DHT22;4639;48.862;9.188;2023-03-01T01:56:40;0.10;99.90
9209;DHT22;4639;48.862;9.188;2023-03-01T01:59:06;0.00;99.90
9209;DHT22;4639;48.862;9.188;2023-03-01T02:01:32;0.10;99.90
9209;DHT22;4639;48.862;9.188;2023-03-01T02:03:58;0.20;99.90
9209;DHT22;4639;48.862;9.188;2023-03-01T02:06:34;0.20;99.90
9209;DHT22;4639;48.862;9.188;2023-03-01T02:09:08;0.20;99.90
9209;DHT22;4639;48.862;9.188;2023-03-01T02:11:36;0.20;99.90
9209;DHT22;4639;48.862;9.188;2023-03-01T02:14:03;0.30;99.90
9209;DHT22;4639;48.862;9.188;2023-03-01T02:16:29;0.40;99.90
9209;DHT22;4639;48.862;9.188;2023-03-01T02:18:56;0.40;99.90
9209;DHT22;4639;48.862;9.188;2023-03-01T02:23:53;0.40;99.90
9209;DHT22;4639;48.862;9.188;2023-03-01T02:26:36;0.40;99.90
9209;DHT22;4639;48.862;9.188;2023-03-01T02:29:04;0.40;99.90
9209;DHT22;4639;48.862;9.188;2023-03-01T02:31:31;0.40;99.90
9209;DHT22;4639;48.862;9.188;2023-03-01T02:36:40;0.50;99.90
9209;DHT22;4639;48.862;9.188;2023-03-01T02:39:09;0.50;99.90
9209;DHT22;4639;48.862;9.188;2023-03-01T02:41:42;0.60;99.90
9209;DHT22;4639;48.862;9.188;2023-03-01T02:44:08;0.70;99.90
9209;DHT22;4639;48.862;9.188;2023-03-01T02:46:34;0.70;99.90
9209;DHT22;4639;48.862;9.188;2023-03-01T02:49:27;0.70;99.90
9209;DHT22;4639;48.862;9.188;2023-03-01T02:52:24;0.70;99.90
9209;DHT22;4639;48.862;9.188;2023-03-01T02:55:04;0.90;99.90
9209;DHT22;4639;48.862;9.188;2023-03-01T02:57:33;0.90;99.90
9209;DHT22;4639;48.862;9.188;2023-03-01T03:00:03;0.80;99.90
9209;DHT22;4639;48.862;9.188;2023-03-01T03:02:32;0.90;99.90
9209;DHT22;4639;48.862;9.188;2023-03-01T03:05:30;0.90;99.90
9209;DHT22;4639;48.862;9.188;2023-03-01T03:07:58;0.90;99.90
9209;DHT22;4639;48.862;9.188;2023-03-01T03:10:31;0.90;99.90
9209;DHT22;4639;48.862;9.188;2023-03-01T03:13:05;0.80;99.90
9209;DHT22;4639;48.862;9.188;2023-03-01T03:15:32;0.80;99.90
9209;DHT22;4639;48.862;9.188;2023-03-01T03:18:03;0.90;99.90
9209;DHT22;4639;48.862;9.188;2023-03-01T03:20:29;0.90;99.90
9209;DHT22;4639;48.862;9.188;2023-03-01T03:22:56;0.90;99.90
9209;DHT22;4639;48.862;9.188;2023-03-01T03:25:25;0.90;99.90
9209;DHT22;4639;48.862;9.188;2023-03-01T03:27:51;0.90;99.90
9209;DHT22;4639;48.862;9.188;2023-03-01T03:30:23;1.00;99.90
9209;DHT22;4639;48.862;9.188;2023-03-01T03:32:48;0.90;99.90
9209;DHT22;4639;48.862;9.188;2023-03-01T03:35:26;1.00;99.90
9209;DHT22;4639;48.862;9.188;2023-03-01T03:37:54;1.00;99.90
9209;DHT22;4639;48.862;9.188;2023-03-01T03:40:32;1.00;99.90
9209;DHT22;4639;48.862;9.188;2023-03-01T03:42:58;1.00;99.90
9209;DHT22;4639;48.862;9.188;2023-03-01T03:45:24;1.00;99.90
9209;DHT22;4639;48.862;9.188;2023-03-01T03:47:49;1.00;99.90
9209;DHT22;4639;48.862;9.188;2023-03-01T03:50:16;1.00;99.90
9209;DHT22;4639;48.862;9.188;2023-03-01T03:52:42;1.00;99.90
9209;DHT22;4639;48.862;9.188;2023-03-01T03:55:10;1.00;99.90
9209;DHT22;4639;48.862;9.188;2023-03-01T03:57:42;1.10;99.90
9209;DHT22;4639;48.862;9.188;2023-03-01T04:00:11;1.10;99.90
9209;DHT22;4639;48.862;9.188;2023-03-01T04:02:43;1.10;99.90
9209;DHT22;4639;48.862;9.188;2023-03-01T04:05:11;1.10;99.90
9209;DHT22;4639;48.862;9.188;2023-03-01T04:07:37;1.30;99.90
9209;DHT22;4639;48.862;9.188;2023-03-01T04:10:05;1.10;99.90
9209;DHT22;4639;48.862;9.188;2023-03-01T04:12:32;1.10;99.90
9209;DHT22;4639;48.862;9.188;2023-03-01T04:14:59;1.10;99.90
9209;DHT22;4639;48.862;9.188;2023-03-01T04:17:25;1.00;99.90
9209;DHT22;4639;48.862;9.188;2023-03-01T04:19:51;1.00;99.90
9209;DHT22;4639;48.862;9.188;2023-03-01T04:22:17;1.00;99.90
9209;DHT22;4639;48.862;9.188;2023-03-01T04:24:45;1.10;99.90
9209;DHT22;4639;48.862;9.188;2023-03-01T04:27:11;1.10;99.90
9209;DHT22;4639;48.862;9.188;2023-03-01T04:29:37;1.10;99.90
9209;DHT22;4639;48.862;9.188;2023-03-01T04:32:02;1.10;99.90
9209;DHT22;4639;48.862;9.188;2023-03-01T04:34:29;1.20;99.90
9209;DHT22;4639;48.862;9.188;2023-03-01T04:36:54;1.20;99.90
9209;DHT22;4639;48.862;9.188;2023-03-01T04:39:20;1.30;99.90
9209;DHT22;4639;48.862;9.188;2023-03-01T04:41:46;1.30;99.90
9209;DHT22;4639;48.862;9.188;2023-03-01T04:44:11;1.20;99.90
9209;DHT22;4639;48.862;9.188;2023-03-01T04:46:38;1.20;99.90
9209;DHT22;4639;48.862;9.188;2023-03-01T04:49:03;1.30;99.90
9209;DHT22;4639;48.862;9.188;2023-03-01T04:51:30;1.30;99.90
9209;DHT22;4639;48.862;9.188;2023-03-01T04:53:57;1.30;99.90
9209;DHT22;4639;48.862;9.188;2023-03-01T04:56:23;1.30;99.90
9209;DHT22;4639;48.862;9.188;2023-03-01T04:58:49;1.30;99.90
9209;DHT22;4639;48.862;9.188;2023-03-01T05:01:18;1.30;99.90
9209;DHT22;4639;48.862;9.188;2023-03-01T05:03:47;1.30;99.90
9209;DHT22;4639;48.862;9.188;2023-03-01T05:06:14;1.30;99.90
9209;DHT22;4639;48.862;9.188;2023-03-01T05:08:40;1.20;99.90
9209;DHT22;4639;48.862;9.188;2023-03-01T05:11:06;1.20;99.90
9209;DHT22;4639;48.862;9.188;2023-03-01T05:13:35;1.20;99.90
9209;DHT22;4639;48.862;9.188;2023-03-01T05:16:02;1.20;99.90
9209;DHT22;4639;48.862;9.188;2023-03-01T05:18:30;1.20;99.90
9209;DHT22;4639;48.862;9.188;2023-03-01T05:21:01;1.20;99.90
9209;DHT22;4639;48.862;9.188;2023-03-01T05:23:29;1.20;99.90
9209;DHT22;4639;48.862;9.188;2023-03-01T05:25:58;1.30;99.90
9209;DHT22;4639;48.862;9.188;2023-03-01T05:28:25;1.30;99.90
9209;DHT22;4639;48.862;9.188;2023-03-01T05:30:51;1.30;99.90
9209;DHT22;4639;48.862;9.188;2023-03-01T05:33:17;1.20;99.90
9209;DHT22;4639;48.862;9.188;2023-03-01T05:35:44;1.30;99.90
9209;DHT22;4639;48.862;9.188;2023-03-01T05:38:12;1.30;99.90
9209;DHT22;4639;48.862;9.188;2023-03-01T05:40:42;1.30;99.90
9209;DHT22;4639;48.862;9.188;2023-03-01T05:43:13;1.40;99.90
9209;DHT22;4639;48.862;9.188;2023-03-01T05:45:39;1.30;99.90
9209;DHT22;4639;48.862;9.188;2023-03-01T05:48:07;1.40;99.90
9209;DHT22;4639;48.862;9.188;2023-03-01T05:50:36;1.40;99.90
9209;DHT22;4639;48.862;9.188;2023-03-01T05:53:04;1.40;99.90
9209;DHT22;4639;48.862;9.188;2023-03-01T05:55:32;1.50;99.90
9209;DHT22;4639;48.862;9.188;2023-03-01T05:57:59;1.40;99.90
9209;DHT22;4639;48.862;9.188;2023-03-01T06:00:25;1.40;99.90
9209;DHT22;4639;48.862;9.188;2023-03-01T06:02:52;1.30;99.90
9209;DHT22;4639;48.862;9.188;2023-03-01T06:05:18;1.30;99.90
9209;DHT22;4639;48.862;9.188;2023-03-01T06:07:44;1.40;99.90
9209;DHT22;4639;48.862;9.188;2023-03-01T06:10:10;1.40;99.90
9209;DHT22;4639;48.862;9.188;2023-03-01T06:12:37;1.50;99.90
9209;DHT22;4639;48.862;9.188;2023-03-01T06:15:04;1.50;99.90
9209;DHT22;4639;48.862;9.188;2023-03-01T06:17:32;1.50;99.90
9209;DHT22;4639;48.862;9.188;2023-03-01T06:19:57;1.40;99.90
9209;DHT22;4639;48.862;9.188;2023-03-01T06:22:23;1.40;99.90
9209;DHT22;4639;48.862;9.188;2023-03-01T06:24:49;1.40;99.90
9209;DHT22;4639;48.862;9.188;2023-03-01T06:27:15;1.40;99.90
9209;DHT22;4639;48.862;9.188;2023-03-01T06:29:41;1.40;99.90
9209;DHT22;4639;48.862;9.188;2023-03-01T06:32:06;1.40;99.90
9209;DHT22;4639;48.862;9.188;2023-03-01T06:34:33;1.30;99.90
9209;DHT22;4639;48.862;9.188;2023-03-01T06:36:59;1.30;99.90
9209;DHT22;4639;48.862;9.188;2023-03-01T06:39:24;1.30;99.90
9209;DHT22;4639;48.862;9.188;2023-03-01T06:41:50;1.40;99.90
9209;DHT22;4639;48.862;9.188;2023-03-01T06:44:15;1.40;99.90
9209;DHT22;4639;48.862;9.188;2023-03-01T06:46:41;1.50;99.90
9209;DHT22;4639;48.862;9.188;2023-03-01T06:49:07;1.50;99.90
9209;DHT22;4639;48.862;9.188;2023-03-01T06:51:35;1.40;99.90
9209;DHT22;4639;48.862;9.188;2023-03-01T06:54:03;1.50;99.90
9209;DHT22;4639;48.862;9.188;2023-03-01T06:56:29;1.60;99.90
9209;DHT22;4639;48.862;9.188;2023-03-01T06:58:54;1.80;99.90
9209;DHT22;4639;48.862;9.188;2023-03-01T07:01:20;1.80;99.90
9209;DHT22;4639;48.862;9.188;2023-03-01T07:03:45;1.70;99.90
9209;DHT22;4639;48.862;9.188;2023-03-01T07:06:11;1.70;99.90
9209;DHT22;4639;48.862;9.188;2023-03-01T07:08:37;1.80;99.90
9209;DHT22;4639;48.862;9.188;2023-03-01T07:11:02;1.90;99.90
9209;DHT22;4639;48.862;9.188;2023-03-01T07:13:29;1.90;99.90
9209;DHT22;4639;48.862;9.188;2023-03-01T07:15:55;2.00;99.90
9209;DHT22;4639;48.862;9.188;2023-03-01T07:18:20;2.10;99.90
9209;DHT22;4639;48.862;9.188;2023-03-01T07:20:46;2.30;99.90
9209;DHT22;4639;48.862;9.188;2023-03-01T07:23:12;2.30;99.90
9209;DHT22;4639;48.862;9.188;2023-03-01T07:25:37;2.40;99.90
9209;DHT22;4639;48.862;9.188;2023-03-01T07:28:03;2.60;99.90
9209;DHT22;4639;48.862;9.188;2023-03-01T07:30:28;2.70;99.90
9209;DHT22;4639;48.862;9.188;2023-03-01T07:32:55;2.70;99.90
9209;DHT22;4639;48.862;9.188;2023-03-01T07:35:23;2.80;99.90
9209;DHT22;4639;48.862;9.188;2023-03-01T07:37:48;2.90;99.90
9209;DHT22;4639;48.862;9.188;2023-03-01T07:40:14;3.10;99.90
9209;DHT22;4639;48.862;9.188;2023-03-01T07:42:39;3.20;99.90
9209;DHT22;4639;48.862;9.188;2023-03-01T07:45:06;3.30;99.90
9209;DHT22;4639;48.862;9.188;2023-03-01T07:47:32;3.50;99.90
9209;DHT22;4639;48.862;9.188;2023-03-01T07:49:57;3.50;99.90
9209;DHT22;4639;48.862;9.188;2023-03-01T07:52:23;3.70;99.90
9209;DHT22;4639;48.862;9.188;2023-03-01T07:54:49;3.80;99.90
9209;DHT22;4639;48.862;9.188;2023-03-01T07:57:14;3.90;99.90
9209;DHT22;4639;48.862;9.188;2023-03-01T07:59:46;4.00;99.90
9209;DHT22;4639;48.862;9.188;2023-03-01T08:02:12;4.10;99.90
9209;DHT22;4639;48.862;9.188;2023-03-01T08:04:37;4.10;99.90
9209;DHT22;4639;48.862;9.188;2023-03-01T08:07:05;4.00;99.90
9209;DHT22;4639;48.862;9.188;2023-03-01T08:09:31;3.90;99.90
9209;DHT22;4639;48.862;9.188;2023-03-01T08:11:57;4.10;99.90
9209;DHT22;4639;48.862;9.188;2023-03-01T08:14:25;4.00;99.90
9209;DHT22;4639;48.862;9.188;2023-03-01T08:16:50;4.30;99.90
9209;DHT22;4639;48.862;9.188;2023-03-01T08:19:16;4.50;99.90
9209;DHT22;4639;48.862;9.188;2023-03-01T08:21:42;4.80;99.90
9209;DHT22;4639;48.862;9.188;2023-03-01T08:24:08;4.90;99.90
9209;DHT22;4639;48.862;9.188;2023-03-01T08:26:36;5.00;99.90
9209;DHT22;4639;48.862;9.188;2023-03-01T08:29:02;5.00;99.90
9209;DHT22;4639;48.862;9.188;2023-03-01T08:31:39;5.10;99.90
9209;DHT22;4639;48.862;9.188;2023-03-01T08:34:08;5.30;99.90
9209;DHT22;4639;48.862;9.188;2023-03-01T08:36:42;5.40;99.90
9209;DHT22;4639;48.862;9.188;2023-03-01T08:39:10;5.50;99.90
9209;DHT22;4639;48.862;9.188;2023-03-01T08:41:36;5.60;99.90
9209;DHT22;4639;48.862;9.188;2023-03-01T08:44:02;5.80;99.90
9209;DHT22;4639;48.862;9.188;2023-03-01T08:46:31;5.70;99.90
9209;DHT22;4639;48.862;9.188;2023-03-01T08:48:57;5.70;99.90
9209;DHT22;4639;48.862;9.188;2023-03-01T08:51:24;5.60;99.90
9209;DHT22;4639;48.862;9.188;2023-03-01T08:53:50;5.70;99.90
9209;DHT22;4639;48.862;9.188;2023-03-01T08:56:16;6.00;99.90
9209;DHT22;4639;48.862;9.188;2023-03-01T08:58:46;6.20;99.90
9209;DHT22;4639;48.862;9.188;2023-03-01T09:01:15;6.30;99.90
9209;DHT22;4639;48.862;9.188;2023-03-01T09:03:41;6.60;99.90
9209;DHT22;4639;48.862;9.188;2023-03-01T09:06:08;6.90;99.90
9209;DHT22;4639;48.862;9.188;2023-03-01T09:08:35;6.90;99.90
9209;DHT22;4639;48.862;9.188;2023-03-01T09:11:03;7.00;99.90
9209;DHT22;4639;48.862;9.188;2023-03-01T09:13:28;7.10;99.90
9209;DHT22;4639;48.862;9.188;2023-03-01T09:15:57;7.30;99.90
9209;DHT22;4639;48.862;9.188;2023-03-01T09:18:22;7.20;99.90
9209;DHT22;4639;48.862;9.188;2023-03-01T09:20:48;7.10;99.90
9209;DHT22;4639;48.862;9.188;2023-03-01T09:23:13;7.20;99.90
9209;DHT22;4639;48.862;9.188;2023-03-01T09:25:39;7.60;99.90
9209;DHT22;4639;48.862;9.188;2023-03-01T09:28:04;7.80;99.90
9209;DHT22;4639;48.862;9.188;2023-03-01T09:30:30;8.10;99.90
9209;DHT22;4639;48.862;9.188;2023-03-01T09:32:59;8.30;99.90
9209;DHT22;4639;48.862;9.188;2023-03-01T09:35:24;8.60;99.90
9209;DHT22;4639;48.862;9.188;2023-03-01T09:37:50;8.80;99.90
9209;DHT22;4639;48.862;9.188;2023-03-01T09:40:19;8.80;99.90
9209;DHT22;4639;48.862;9.188;2023-03-01T09:42:53;9.00;99.90
9209;DHT22;4639;48.862;9.188;2023-03-01T09:45:36;9.00;99.90
9209;DHT22;4639;48.862;9.188;2023-03-01T09:48:05;9.20;99.90
9209;DHT22;4639;48.862;9.188;2023-03-01T09:50:35;9.20;99.90
9209;DHT22;4639;48.862;9.188;2023-03-01T09:53:09;9.30;99.90
9209;DHT22;4639;48.862;9.188;2023-03-01T09:55:44;9.40;99.90
9209;DHT22;4639;48.862;9.188;2023-03-01T09:58:31;9.40;99.90
9209;DHT22;4639;48.862;9.188;2023-03-01T10:01:10;9.00;99.90
9209;DHT22;4639;48.862;9.188;2023-03-01T10:03:43;9.10;99.90
9209;DHT22;4639;48.862;9.188;2023-03-01T10:06:14;9.20;99.90
9209;DHT22;4639;48.862;9.188;2023-03-01T10:11:25;9.40;99.90
9209;DHT22;4639;48.862;9.188;2023-03-01T10:13:55;9.60;99.90
9209;DHT22;4639;48.862;9.188;2023-03-01T10:19:27;9.90;99.90
9209;DHT22;4639;48.862;9.188;2023-03-01T10:24:54;10.50;99.90
9209;DHT22;4639;48.862;9.188;2023-03-01T10:28:10;10.60;99.90
9209;DHT22;4639;48.862;9.188;2023-03-01T10:30:50;10.50;99.90
9209;DHT22;4639;48.862;9.188;2023-03-01T10:33:20;10.90;99.90
9209;DHT22;4639;48.862;9.188;2023-03-01T10:35:47;11.20;99.90
9209;DHT22;4639;48.862;9.188;2023-03-01T10:38:14;11.60;99.90
9209;DHT22;4639;48.862;9.188;2023-03-01T10:41:16;11.80;99.90
9209;DHT22;4639;48.862;9.188;2023-03-01T10:43:45;11.80;99.90
9209;DHT22;4639;48.862;9.188;2023-03-01T10:46:24;12.00;99.90
9209;DHT22;4639;48.862;9.188;2023-03-01T10:49:23;12.00;99.90
9209;DHT22;4639;48.862;9.188;2023-03-01T10:51:52;12.00;99.90
9209;DHT22;4639;48.862;9.188;2023-03-01T10:54:39;11.90;99.90
9209;DHT22;4639;48.862;9.188;2023-03-01T10:57:29;12.20;99.90
9209;DHT22;4639;48.862;9.188;2023-03-01T11:02:42;12.10;99.90
9209;DHT22;4639;48.862;9.188;2023-03-01T11:10:20;12.20;99.90
9209;DHT22;4639;48.862;9.188;2023-03-01T11:12:46;12.10;99.90
9209;DHT22;4639;48.862;9.188;2023-03-01T11:15:25;11.90;99.90
9209;DHT22;4639;48.862;9.188;2023-03-01T11:17:51;11.70;99.90
9209;DHT22;4639;48.862;9.188;2023-03-01T11:20:34;11.40;99.90
9209;DHT22;4639;48.862;9.188;2023-03-01T11:23:08;11.10;99.90
9209;DHT22;4639;48.862;9.188;2023-03-01T11:25:37;11.30;99.90
9209;DHT22;4639;48.862;9.188;2023-03-01T11:28:05;11.80;99.90
9209;DHT22;4639;48.862;9.188;2023-03-01T11:30:38;12.00;99.90
9209;DHT22;4639;48.862;9.188;2023-03-01T11:35:44;12.00;99.90
9209;DHT22;4639;48.862;9.188;2023-03-01T11:38:19;11.80;99.90
9209;DHT22;4639;48.862;9.188;2023-03-01T11:43:26;12.10;99.90
9209;DHT22;4639;48.862;9.188;2023-03-01T11:57:01;11.90;99.90
9209;DHT22;4639;48.862;9.188;2023-03-01T12:10:40;11.60;99.90
9209;DHT22;4639;48.862;9.188;2023-03-01T12:13:43;11.70;99.90
9209;DHT22;4639;48.862;9.188;2023-03-01T12:19:07;12.00;99.90
9209;DHT22;4639;48.862;9.188;2023-03-01T12:33:37;12.20;99.90
9209;DHT22;4639;48.862;9.188;2023-03-01T12:36:13;12.20;99.90
9209;DHT22;4639;48.862;9.188;2023-03-01T12:44:51;12.70;99.90
9209;DHT22;4639;48.862;9.188;2023-03-01T12:47:36;12.80;99.90
9209;DHT22;4639;48.862;9.188;2023-03-01T12:50:24;13.10;99.90
9209;DHT22;4639;48.862;9.188;2023-03-01T12:52:57;13.20;99.90
9209;DHT22;4639;48.862;9.188;2023-03-01T12:58:04;13.10;99.90
9209;DHT22;4639;48.862;9.188;2023-03-01T13:11:46;13.00;99.90
9209;DHT22;4639;48.862;9.188;2023-03-01T13:16:48;12.80;99.90
9209;DHT22;4639;48.862;9.188;2023-03-01T13:19:19;12.80;99.90
9209;DHT22;4639;48.862;9.188;2023-03-01T13:21:47;12.80;99.90
9209;DHT22;4639;48.862;9.188;2023-03-01T13:27:22;12.60;99.90
9209;DHT22;4639;48.862;9.188;2023-03-01T13:29:56;12.90;99.90
9209;DHT22;4639;48.862;9.188;2023-03-01T13:32:37;13.00;99.90
9209;DHT22;4639;48.862;9.188;2023-03-01T13:37:42;13.20;99.90
9209;DHT22;4639;48.862;9.188;2023-03-01T13:42:44;13.40;99.90
9209;DHT22;4639;48.862;9.188;2023-03-01T13:47:58;12.70;99.90
9209;DHT22;4639;48.862;9.188;2023-03-01T13:50:29;12.80;99.90
9209;DHT22;4639;48.862;9.188;2023-03-01T13:53:02;12.70;99.90
9209;DHT22;4639;48.862;9.188;2023-03-01T13:55:47;12.70;99.90
9209;DHT22;4639;48.862;9.188;2023-03-01T13:58:21;12.50;99.90
9209;DHT22;4639;48.862;9.188;2023-03-01T14:00:47;12.40;99.90
9209;DHT22;4639;48.862;9.188;2023-03-01T14:03:19;12.40;99.90
9209;DHT22;4639;48.862;9.188;2023-03-01T14:06:06;12.40;99.90
9209;DHT22;4639;48.862;9.188;2023-03-01T14:08:33;12.50;99.90
9209;DHT22;4639;48.862;9.188;2023-03-01T14:13:54;12.10;99.90
9209;DHT22;4639;48.862;9.188;2023-03-01T14:19:25;11.90;99.90
9209;DHT22;4639;48.862;9.188;2023-03-01T14:24:31;11.70;99.90
9209;DHT22;4639;48.862;9.188;2023-03-01T14:27:00;11.60;99.90
9209;DHT22;4639;48.862;9.188;2023-03-01T14:29:32;11.60;99.90
9209;DHT22;4639;48.862;9.188;2023-03-01T14:32:12;11.60;99.90
9209;DHT22;4639;48.862;9.188;2023-03-01T14:34:43;11.80;99.90
9209;DHT22;4639;48.862;9.188;2023-03-01T14:37:30;12.00;99.90
9209;DHT22;4639;48.862;9.188;2023-03-01T14:39:59;12.10;99.90
9209;DHT22;4639;48.862;9.188;2023-03-01T14:42:28;12.10;99.90
9209;DHT22;4639;48.862;9.188;2023-03-01T14:44:55;12.10;99.90
9209;DHT22;4639;48.862;9.188;2023-03-01T14:47:32;12.10;99.90
9209;DHT22;4639;48.862;9.188;2023-03-01T14:50:16;12.20;99.90
9209;DHT22;4639;48.862;9.188;2023-03-01T14:52:46;12.20;99.90
9209;DHT22;4639;48.862;9.188;2023-03-01T14:55:29;12.20;99.90
9209;DHT22;4639;48.862;9.188;2023-03-01T14:57:56;12.00;99.90
9209;DHT22;4639;48.862;9.188;2023-03-01T15:00:27;12.10;99.90
9209;DHT22;4639;48.862;9.188;2023-03-01T15:02:57;12.00;99.90
9209;DHT22;4639;48.862;9.188;2023-03-01T15:05:31;12.00;99.90
9209;DHT22;4639;48.862;9.188;2023-03-01T15:07:58;11.90;99.90
9209;DHT22;4639;48.862;9.188;2023-03-01T15:10:28;11.90;99.90
9209;DHT22;4639;48.862;9.188;2023-03-01T15:12:54;11.70;99.90
9209;DHT22;4639;48.862;9.188;2023-03-01T15:18:00;11.70;99.90
9209;DHT22;4639;48.862;9.188;2023-03-01T15:20:28;11.50;99.90
9209;DHT22;4639;48.862;9.188;2023-03-01T15:22:56;11.40;99.90
9209;DHT22;4639;48.862;9.188;2023-03-01T15:25:27;11.40;99.90
9209;DHT22;4639;48.862;9.188;2023-03-01T15:27:55;11.60;99.90
9209;DHT22;4639;48.862;9.188;2023-03-01T15:30:31;11.60;99.90
9209;DHT22;4639;48.862;9.188;2023-03-01T15:35:52;11.50;99.90
9209;DHT22;4639;48.862;9.188;2023-03-01T15:40:50;11.40;99.90
9209;DHT22;4639;48.862;9.188;2023-03-01T15:43:43;11.20;99.90
9209;DHT22;4639;48.862;9.188;2023-03-01T15:46:30;11.20;99.90
9209;DHT22;4639;48.862;9.188;2023-03-01T15:49:00;11.30;99.90
9209;DHT22;4639;48.862;9.188;2023-03-01T15:51:36;11.30;99.90
9209;DHT22;4639;48.862;9.188;2023-03-01T15:54:18;11.10;99.90
9209;DHT22;4639;48.862;9.188;2023-03-01T15:56:44;10.90;99.90
9209;DHT22;4639;48.862;9.188;2023-03-01T15:59:11;10.90;99.90
9209;DHT22;4639;48.862;9.188;2023-03-01T16:01:43;11.00;99.90
9209;DHT22;4639;48.862;9.188;2023-03-01T16:04:10;10.90;99.90
9209;DHT22;4639;48.862;9.188;2023-03-01T16:06:38;10.70;99.90
9209;DHT22;4639;48.862;9.188;2023-03-01T16:09:04;10.60;99.90
9209;DHT22;4639;48.862;9.188;2023-03-01T16:11:30;10.30;99.90
9209;DHT22;4639;48.862;9.188;2023-03-01T16:13:57;10.20;99.90
9209;DHT22;4639;48.862;9.188;2023-03-01T16:16:23;10.10;99.90
9209;DHT22;4639;48.862;9.188;2023-03-01T16:18:49;10.20;99.90
9209;DHT22;4639;48.862;9.188;2023-03-01T16:21:22;10.00;99.90
9209;DHT22;4639;48.862;9.188;2023-03-01T16:23:49;9.80;99.90
9209;DHT22;4639;48.862;9.188;2023-03-01T16:26:15;9.70;99.90
9209;DHT22;4639;48.862;9.188;2023-03-01T16:28:41;9.50;99.90
9209;DHT22;4639;48.862;9.188;2023-03-01T16:31:08;9.50;99.90
9209;DHT22;4639;48.862;9.188;2023-03-01T16:33:34;9.40;99.90
9209;DHT22;4639;48.862;9.188;2023-03-01T16:36:01;9.30;99.90
9209;DHT22;4639;48.862;9.188;2023-03-01T16:38:31;9.10;99.90
9209;DHT22;4639;48.862;9.188;2023-03-01T16:40:57;9.00;99.90
9209;DHT22;4639;48.862;9.188;2023-03-01T16:43:22;8.80;99.90
9209;DHT22;4639;48.862;9.188;2023-03-01T16:45:48;8.70;99.90
9209;DHT22;4639;48.862;9.188;2023-03-01T16:48:13;8.60;99.90
9209;DHT22;4639;48.862;9.188;2023-03-01T16:50:39;8.50;99.90
9209;DHT22;4639;48.862;9.188;2023-03-01T16:53:05;8.40;99.90
9209;DHT22;4639;48.862;9.188;2023-03-01T16:55:31;8.40;99.90
9209;DHT22;4639;48.862;9.188;2023-03-01T16:57:56;8.40;99.90
9209;DHT22;4639;48.862;9.188;2023-03-01T17:00:22;8.30;99.90
9209;DHT22;4639;48.862;9.188;2023-03-01T17:02:48;8.20;99.90
9209;DHT22;4639;48.862;9.188;2023-03-01T17:05:14;8.20;99.90
9209;DHT22;4639;48.862;9.188;2023-03-01T17:07:39;8.10;99.90
9209;DHT22;4639;48.862;9.188;2023-03-01T17:10:07;8.20;99.90
9209;DHT22;4639;48.862;9.188;2023-03-01T17:12:34;8.20;99.90
9209;DHT22;4639;48.862;9.188;2023-03-01T17:14:59;8.10;99.90
9209;DHT22;4639;48.862;9.188;2023-03-01T17:17:26;8.00;99.90
9209;DHT22;4639;48.862;9.188;2023-03-01T17:19:51;7.90;99.90
9209;DHT22;4639;48.862;9.188;2023-03-01T17:22:17;7.90;99.90
9209;DHT22;4639;48.862;9.188;2023-03-01T17:24:43;7.80;99.90
9209;DHT22;4639;48.862;9.188;2023-03-01T17:27:09;7.80;99.90
9209;DHT22;4639;48.862;9.188;2023-03-01T17:29:36;7.80;99.90
9209;DHT22;4639;48.862;9.188;2023-03-01T17:32:03;7.80;99.90
9209;DHT22;4639;48.862;9.188;2023-03-01T17:34:30;7.70;99.90
9209;DHT22;4639;48.862;9.188;2023-03-01T17:36:56;7.70;99.90
9209;DHT22;4639;48.862;9.188;2023-03-01T17:39:22;7.60;99.90
9209;DHT22;4639;48.862;9.188;2023-03-01T17:41:52;7.50;99.90
9209;DHT22;4639;48.862;9.188;2023-03-01T17:44:18;7.40;99.90
9209;DHT22;4639;48.862;9.188;2023-03-01T17:46:44;7.20;99.90
9209;DHT22;4639;48.862;9.188;2023-03-01T17:49:10;7.20;99.90
9209;DHT22;4639;48.862;9.188;2023-03-01T17:51:35;7.20;99.90
9209;DHT22;4639;48.862;9.188;2023-03-01T17:54:01;7.10;99.90
9209;DHT22;4639;48.862;9.188;2023-03-01T17:56:27;7.10;99.90
9209;DHT22;4639;48.862;9.188;2023-03-01T17:58:53;7.00;99.90
9209;DHT22;4639;48.862;9.188;2023-03-01T18:01:20;7.00;99.90
9209;DHT22;4639;48.862;9.188;2023-03-01T18:03:46;6.90;99.90
9209;DHT22;4639;48.862;9.188;2023-03-01T18:06:16;6.90;99.90
9209;DHT22;4639;48.862;9.188;2023-03-01T18:08:42;6.80;99.90
9209;DHT22;4639;48.862;9.188;2023-03-01T18:11:10;6.80;99.90
9209;DHT22;4639;48.862;9.188;2023-03-01T18:13:36;6.80;99.90
9209;DHT22;4639;48.862;9.188;2023-03-01T18:16:05;6.80;99.90
9209;DHT22;4639;48.862;9.188;2023-03-01T18:18:31;6.70;99.90
9209;DHT22;4639;48.862;9.188;2023-03-01T18:20:57;6.70;99.90